Time;durP1;ratioP1;P1;durP2;ratioP2;P2;SDS_P1;SDS_P2;PMS_P1;PMS_P2;Temp;Humidity;BMP_temperature;BMP_pressure;BME280_temperature;BME280_humidity;BME280_pressure;Samples;Min_cycle;Max_cycle;Signal;HPM_P1;HPM_P2
2023/10/11 00:01:48;;;;;;;16.55;8.50;;;15.60;65.40;;;;;;5012159;28;20396;-77
2023/10/11 00:04:23;;;;;;;16.90;9.05;;;15.50;65.80;;;;;;5012047;28;20396;-74
2023/10/11 00:06:56;;;;;;;15.02;8.70;;;15.60;65.50;;;;;;5012261;28;20868;-77
2023/10/11 00:09:34;;;;;;;18.77;9.18;;;15.60;64.70;;;;;;5014335;28;20400;-77
2023/10/11 00:12:04;;;;;;;17.00;8.52;;;15.60;64.60;;;;;;5015224;28;20415;-77
2023/10/11 00:14:30;;;;;;;16.67;9.05;;;15.60;64.20;;;;;;5019081;28;20484;-77
2023/10/11 00:16:56;;;;;;;18.38;8.95;;;15.60;64.30;;;;;;5015586;28;20411;-76
2023/10/11 00:19:27;;;;;;;18.25;8.60;;;15.50;64.80;;;;;;5014201;28;20458;-77
2023/10/11 00:21:53;;;;;;;17.83;9.10;;;15.50;64.80;;;;;;5012703;28;20384;-77
2023/10/11 00:24:23;;;;;;;18.13;9.05;;;15.50;64.70;;;;;;5011140;28;20396;-74
2023/10/11 00:26:49;;;;;;;18.25;8.60;;;15.50;64.60;;;;;;5011080;28;20388;-77
2023/10/11 00:29:15;;;;;;;16.77;8.80;;;15.50;64.50;;;;;;5011323;28;20412;-75
2023/10/11 00:31:41;;;;;;;16.80;8.67;;;15.50;64.60;;;;;;5011491;28;20766;-75
2023/10/11 00:34:12;;;;;;;15.53;8.40;;;15.40;64.40;;;;;;5011083;28;20392;-77
2023/10/11 00:36:38;;;;;;;14.10;8.23;;;15.40;65.20;;;;;;5011911;28;20384;-77
2023/10/11 00:39:07;;;;;;;19.17;8.60;;;15.30;65.50;;;;;;5012088;28;20476;-77
2023/10/11 00:41:39;;;;;;;19.30;9.05;;;15.30;65.70;;;;;;4995780;28;20454;-77
2023/10/11 00:44:05;;;;;;;20.73;8.98;;;15.30;66.40;;;;;;5016063;28;20887;-75
2023/10/11 00:49:35;;;;;;;15.43;7.75;;;15.20;67.10;;;;;;4982190;28;20393;-76
2023/10/11 00:52:06;;;;;;;18.27;9.20;;;15.20;66.70;;;;;;5016529;28;20799;-76
2023/10/11 00:54:36;;;;;;;17.70;8.63;;;15.20;67.00;;;;;;5016593;28;20882;-76
2023/10/11 00:57:02;;;;;;;13.93;8.55;;;15.20;66.60;;;;;;5017323;28;20443;-76
2023/10/11 00:59:29;;;;;;;18.00;8.38;;;15.20;66.40;;;;;;5015868;28;20388;-76
2023/10/11 01:01:55;;;;;;;15.48;8.45;;;15.30;66.50;;;;;;5015156;28;20392;-76
2023/10/11 01:04:22;;;;;;;19.48;8.65;;;15.30;65.60;;;;;;5014674;28;20874;-76
2023/10/11 01:06:48;;;;;;;17.60;8.27;;;15.30;65.90;;;;;;5014867;28;20806;-76
2023/10/11 01:09:17;;;;;;;16.55;9.88;;;15.20;66.50;;;;;;5017803;28;20392;-76
2023/10/11 01:11:45;;;;;;;18.98;8.90;;;15.20;67.30;;;;;;5017856;28;20445;-77
2023/10/11 01:14:11;;;;;;;17.35;9.15;;;15.10;68.20;;;;;;5023901;28;20404;-77
2023/10/11 01:16:37;;;;;;;16.83;8.60;;;15.00;68.90;;;;;;5022972;28;20385;-77
2023/10/11 01:19:10;;;;;;;18.20;9.20;;;15.00;68.80;;;;;;4999245;28;20389;-77
2023/10/11 01:21:37;;;;;;;19.10;10.27;;;15.10;67.50;;;;;;5024068;28;20381;-76
2023/10/11 01:24:02;;;;;;;17.20;9.30;;;15.10;67.90;;;;;;5024466;28;20397;-77
2023/10/11 01:26:30;;;;;;;17.42;8.98;;;15.10;68.00;;;;;;5028940;28;20391;-76
2023/10/11 01:28:56;;;;;;;16.83;8.80;;;15.00;69.00;;;;;;5029233;28;20412;-77
2023/10/11 01:31:23;;;;;;;21.42;8.93;;;15.10;68.00;;;;;;5020691;28;20918;-76
2023/10/11 01:33:49;;;;;;;19.02;8.90;;;15.10;67.60;;;;;;5015736;28;20380;-77
2023/10/11 01:36:15;;;;;;;22.77;9.10;;;15.10;67.20;;;;;;4999341;28;20381;-77
2023/10/11 01:38:48;;;;;;;18.42;9.43;;;15.10;67.80;;;;;;5016103;28;20876;-77
2023/10/11 01:41:15;;;;;;;17.55;9.05;;;15.10;67.00;;;;;;5015755;28;20389;-77
2023/10/11 01:43:40;;;;;;;18.75;8.55;;;15.10;67.00;;;;;;5015917;28;20488;-77
2023/10/11 01:46:06;;;;;;;17.77;8.95;;;15.10;66.20;;;;;;5016303;28;20417;-77
2023/10/11 01:48:31;;;;;;;19.97;8.80;;;15.10;66.20;;;;;;5016763;28;20416;-77
2023/10/11 01:51:03;;;;;;;16.60;8.40;;;15.10;66.40;;;;;;5016329;28;20420;-77
2023/10/11 01:53:29;;;;;;;15.65;8.45;;;15.10;65.90;;;;;;5018339;28;20389;-78
2023/10/11 01:55:55;;;;;;;16.35;8.85;;;15.10;65.80;;;;;;5017768;28;20385;-76
2023/10/11 01:58:20;;;;;;;21.27;9.38;;;15.10;66.60;;;;;;5015485;28;20409;-76
2023/10/11 02:00:48;;;;;;;18.70;8.80;;;15.10;66.50;;;;;;5013782;28;20389;-77
2023/10/11 02:03:14;;;;;;;17.42;8.45;;;15.10;66.30;;;;;;5013528;28;20428;-76
2023/10/11 02:05:40;;;;;;;15.95;8.68;;;15.00;66.90;;;;;;5013522;28;20401;-77
2023/10/11 02:08:06;;;;;;;16.70;8.52;;;14.90;67.90;;;;;;5013391;28;20407;-76
2023/10/11 02:10:36;;;;;;;21.45;8.60;;;15.00;67.50;;;;;;5013450;28;20500;-77
2023/10/11 02:13:04;;;;;;;17.25;8.88;;;15.00;67.80;;;;;;4995277;28;20408;-75
2023/10/11 02:15:30;;;;;;;17.60;9.05;;;14.90;67.70;;;;;;5014213;28;20391;-77
2023/10/11 02:17:57;;;;;;;15.00;8.90;;;14.90;68.60;;;;;;5014321;28;20468;-77
2023/10/11 02:20:22;;;;;;;20.13;9.10;;;14.80;69.40;;;;;;5014770;28;20408;-76
2023/10/11 02:22:59;;;;;;;16.20;8.90;;;14.70;70.50;;;;;;4997534;28;20935;-77
2023/10/11 02:25:25;;;;;;;21.50;8.90;;;14.80;69.60;;;;;;5015857;28;21025;-76
2023/10/11 02:27:53;;;;;;;16.70;8.90;;;14.70;69.90;;;;;;5015678;28;20412;-77
2023/10/11 02:30:24;;;;;;;17.98;8.70;;;14.70;70.60;;;;;;5020632;28;20405;-77
2023/10/11 02:32:51;;;;;;;20.40;8.70;;;14.70;70.70;;;;;;5022282;28;20458;-76
2023/10/11 02:35:18;;;;;;;15.68;8.50;;;14.50;72.10;;;;;;5019291;28;20408;-77
2023/10/11 02:37:45;;;;;;;16.42;9.00;;;14.60;71.70;;;;;;5022323;28;20407;-77
2023/10/11 02:40:16;;;;;;;16.67;8.70;;;14.60;72.10;;;;;;5016751;28;20412;-76
2023/10/11 02:42:43;;;;;;;16.60;9.23;;;14.50;73.30;;;;;;5012788;28;20744;-75
2023/10/11 02:45:12;;;;;;;16.60;9.00;;;14.50;72.70;;;;;;5013438;28;20806;-75
2023/10/11 02:47:39;;;;;;;23.95;9.93;;;14.40;74.00;;;;;;5014444;28;20463;-76
2023/10/11 02:50:07;;;;;;;22.52;9.52;;;14.40;75.50;;;;;;4996789;28;20384;-76
2023/10/11 02:52:36;;;;;;;21.60;9.00;;;14.30;76.00;;;;;;5013216;28;20892;-76
2023/10/11 02:55:21;;;;;;;13.38;8.50;;;14.20;76.70;;;;;;5014412;28;20392;-77
2023/10/11 02:57:48;;;;;;;21.77;9.05;;;14.10;78.20;;;;;;5014924;28;20393;-76
2023/10/11 03:00:23;;;;;;;15.35;8.95;;;14.10;79.30;;;;;;5012301;28;20411;-76
2023/10/11 03:02:54;;;;;;;18.67;10.17;;;14.10;78.80;;;;;;5012223;28;20879;-76
2023/10/11 03:05:20;;;;;;;20.45;9.85;;;14.00;79.70;;;;;;5012849;28;20463;-74
2023/10/11 03:07:46;;;;;;;21.40;9.45;;;14.00;80.20;;;;;;5013600;28;20748;-76
2023/10/11 03:10:13;;;;;;;18.92;9.80;;;14.00;81.10;;;;;;5012455;28;20480;-77
2023/10/11 03:12:39;;;;;;;18.15;8.82;;;14.00;80.40;;;;;;5012084;28;20405;-76
2023/10/11 03:15:07;;;;;;;18.27;8.90;;;14.00;80.00;;;;;;5011689;28;20381;-74
2023/10/11 03:17:40;;;;;;;14.77;9.40;;;14.10;79.10;;;;;;5011566;28;20416;-75
2023/10/11 03:20:08;;;;;;;19.35;8.85;;;14.20;78.10;;;;;;5011688;28;20868;-75
2023/10/11 03:22:35;;;;;;;19.50;9.50;;;14.10;78.10;;;;;;5011158;28;20396;-75
2023/10/11 03:25:12;;;;;;;24.30;9.48;;;14.20;76.60;;;;;;5011584;28;20943;-77
2023/10/11 03:27:45;;;;;;;16.20;8.70;;;14.20;76.40;;;;;;5011594;28;20393;-75
2023/10/11 03:30:13;;;;;;;15.23;9.10;;;14.20;75.70;;;;;;5011691;28;20401;-76
2023/10/11 03:32:41;;;;;;;21.67;8.73;;;14.30;74.20;;;;;;5012504;28;20385;-76
2023/10/11 03:35:15;;;;;;;22.55;9.50;;;14.40;72.30;;;;;;5014587;28;20391;-75
2023/10/11 03:37:57;;;;;;;17.20;8.97;;;14.40;72.20;;;;;;5015318;28;20385;-76
2023/10/11 03:40:54;;;;;;;18.42;8.48;;;14.40;72.00;;;;;;5019403;28;20419;-75
2023/10/11 03:43:16;;;;;;;22.10;9.63;;;14.40;72.30;;;;;;5025233;28;20411;-75
2023/10/11 03:45:49;;;;;;;19.30;8.50;;;14.30;72.50;;;;;;5026670;28;20392;-75
2023/10/11 03:48:19;;;;;;;21.38;8.57;;;14.40;71.80;;;;;;5004531;28;20804;-76
2023/10/11 03:50:51;;;;;;;21.13;7.80;;;14.30;72.80;;;;;;5012183;28;20535;-76
2023/10/11 03:53:16;;;;;;;14.57;8.23;;;14.30;72.10;;;;;;5011257;28;20383;-76
2023/10/11 03:55:46;;;;;;;18.48;8.63;;;14.40;71.50;;;;;;5011341;28;20389;-76
2023/10/11 04:01:04;;;;;;;15.10;8.48;;;14.30;72.80;;;;;;5011117;28;20380;-77
2023/10/11 04:03:30;;;;;;;16.70;8.70;;;14.30;72.70;;;;;;5010950;28;20445;-76
2023/10/11 04:05:58;;;;;;;24.93;8.80;;;14.30;72.70;;;;;;5011303;28;20397;-75
2023/10/11 04:08:25;;;;;;;18.27;8.48;;;14.40;71.80;;;;;;5011030;28;20933;-77
2023/10/11 04:10:51;;;;;;;18.65;8.90;;;14.30;71.70;;;;;;5011000;28;20884;-76
2023/10/11 04:13:24;;;;;;;16.23;8.35;;;14.40;71.70;;;;;;5010486;28;20856;-77
2023/10/11 04:15:50;;;;;;;24.77;9.37;;;14.40;70.00;;;;;;5010646;28;20728;-76
2023/10/11 04:21:16;;;;;;;16.92;8.38;;;14.30;71.10;;;;;;5010941;28;20902;-76
2023/10/11 04:23:45;;;;;;;27.30;9.05;;;14.30;71.60;;;;;;4993171;28;20824;-75
2023/10/11 04:26:32;;;;;;;16.35;8.52;;;14.40;70.60;;;;;;5010672;28;20907;-76
2023/10/11 04:29:06;;;;;;;17.98;8.88;;;14.30;71.30;;;;;;5011188;28;20392;-76
2023/10/11 04:31:43;;;;;;;22.35;8.73;;;14.40;70.50;;;;;;5011029;28;20405;-75
2023/10/11 04:34:11;;;;;;;17.80;8.95;;;14.40;69.50;;;;;;5010659;28;20389;-75
2023/10/11 04:36:42;;;;;;;23.17;8.52;;;14.50;68.90;;;;;;5010799;28;20685;-77
2023/10/11 04:39:15;;;;;;;22.63;8.70;;;14.50;68.90;;;;;;5011741;28;20476;-76
2023/10/11 04:41:49;;;;;;;19.38;8.75;;;14.40;68.90;;;;;;5010690;28;20468;-78
2023/10/11 04:44:17;;;;;;;18.48;9.32;;;14.50;68.20;;;;;;4992893;28;20644;-76
2023/10/11 04:46:44;;;;;;;22.88;9.30;;;14.50;67.30;;;;;;5010673;28;20763;-76
2023/10/11 04:49:22;;;;;;;20.13;9.00;;;14.50;68.00;;;;;;5010945;28;20477;-76
2023/10/11 04:51:48;;;;;;;20.05;8.85;;;14.40;68.80;;;;;;5010728;28;20423;-76
2023/10/11 04:54:14;;;;;;;23.40;9.65;;;14.40;69.70;;;;;;5010793;28;20385;-76
2023/10/11 04:59:11;;;;;;;20.55;9.05;;;14.30;70.60;;;;;;5010645;28;20439;-76
2023/10/11 05:04:26;;;;;;;18.58;8.70;;;14.40;69.50;;;;;;5010914;28;20419;-74
2023/10/11 05:06:53;;;;;;;25.98;9.35;;;14.30;69.60;;;;;;5010446;28;20763;-76
2023/10/11 05:11:50;;;;;;;19.70;9.90;;;14.30;71.00;;;;;;5010829;28;20505;-77
2023/10/11 05:20:44;;;;;;;19.65;9.13;;;14.30;70.20;;;;;;5010483;28;20376;-76
2023/10/11 05:28:07;;;;;;;24.25;9.80;;;14.30;70.40;;;;;;5011000;28;20408;-77
2023/10/11 05:30:37;;;;;;;23.00;10.20;;;14.20;71.90;;;;;;4996166;28;20408;-74
2023/10/11 05:52:03;;;;;;;17.52;9.70;;;14.20;71.00;;;;;;5013436;28;20410;-76
2023/10/11 05:54:34;;;;;;;22.02;9.43;;;14.20;70.80;;;;;;5013418;28;20385;-76
2023/10/11 05:57:03;;;;;;;24.05;9.80;;;14.20;70.30;;;;;;5014552;28;20377;-76
2023/10/11 05:59:32;;;;;;;23.92;9.50;;;14.20;70.90;;;;;;5012980;28;20812;-75
2023/10/11 06:01:57;;;;;;;20.83;9.50;;;14.20;71.10;;;;;;5013131;28;20393;-75
2023/10/11 06:04:23;;;;;;;16.93;9.00;;;14.20;70.80;;;;;;5013255;28;20396;-75
2023/10/11 06:06:57;;;;;;;22.43;10.50;;;14.20;70.30;;;;;;5013428;28;20518;-77
2023/10/11 06:09:27;;;;;;;21.10;9.63;;;14.20;70.50;;;;;;5013229;28;20396;-76
2023/10/11 06:11:53;;;;;;;30.33;10.23;;;14.30;69.70;;;;;;5013113;28;20819;-76
2023/10/11 06:14:20;;;;;;;25.50;10.48;;;14.40;69.10;;;;;;4995573;28;20464;-75
2023/10/11 06:17:06;;;;;;;20.42;10.00;;;14.40;68.30;;;;;;5012888;28;20391;-74
2023/10/11 06:19:32;;;;;;;24.88;9.45;;;14.40;68.00;;;;;;5012785;28;20808;-75
2023/10/11 06:21:58;;;;;;;19.23;10.05;;;14.50;66.70;;;;;;5012772;28;20392;-77
2023/10/11 06:24:36;;;;;;;27.40;9.55;;;14.50;67.10;;;;;;5012471;28;20480;-77
2023/10/11 06:29:53;;;;;;;24.73;10.10;;;14.60;66.10;;;;;;4993117;28;20623;-75
2023/10/11 06:32:22;;;;;;;20.17;9.97;;;14.60;65.60;;;;;;4992926;28;20397;-75
2023/10/11 06:34:52;;;;;;;22.85;10.30;;;14.60;65.00;;;;;;4976076;28;20382;-75
2023/10/11 06:37:19;;;;;;;24.52;9.70;;;14.70;65.10;;;;;;4992964;28;20387;-75
2023/10/11 06:42:14;;;;;;;24.27;10.80;;;14.80;64.30;;;;;;5012335;28;20477;-75
2023/10/11 06:44:47;;;;;;;22.80;10.23;;;14.80;63.20;;;;;;5001105;28;20406;-75
2023/10/11 06:47:20;;;;;;;23.52;9.40;;;14.80;62.10;;;;;;5012154;28;20480;-73
2023/10/11 06:49:56;;;;;;;20.40;9.90;;;14.90;61.40;;;;;;5001424;28;20714;-75
2023/10/11 06:52:26;;;;;;;22.42;9.98;;;15.00;60.30;;;;;;4997495;28;20733;-75
2023/10/11 06:57:39;;;;;;;24.87;11.03;;;15.00;59.70;;;;;;5009535;28;20465;-76
2023/10/11 07:00:12;;;;;;;20.33;9.48;;;15.10;59.80;;;;;;4992580;28;20390;-76
2023/10/11 07:02:39;;;;;;;24.93;10.33;;;15.20;58.80;;;;;;4991888;28;20724;-75
2023/10/11 07:05:14;;;;;;;20.88;10.30;;;15.30;58.20;;;;;;4992530;28;20405;-75
2023/10/11 07:07:39;;;;;;;20.67;9.57;;;15.40;57.30;;;;;;4992226;28;20486;-76
2023/10/11 07:10:23;;;;;;;22.45;9.70;;;15.50;57.60;;;;;;4993493;28;20445;-76
2023/10/11 07:12:59;;;;;;;22.98;9.20;;;15.50;55.70;;;;;;4994487;28;20398;-77
2023/10/11 07:15:25;;;;;;;20.60;9.63;;;15.60;55.70;;;;;;4994144;28;20394;-77
2023/10/11 07:17:52;;;;;;;23.88;9.93;;;15.70;55.40;;;;;;4994492;28;20386;-75
2023/10/11 07:20:47;;;;;;;22.05;9.02;;;15.80;54.60;;;;;;4996060;28;20416;-76
2023/10/11 07:23:18;;;;;;;20.17;10.07;;;15.80;53.00;;;;;;4999083;28;20780;-76
2023/10/11 07:25:45;;;;;;;22.73;8.93;;;16.00;52.80;;;;;;4994252;28;20395;-77
2023/10/11 07:28:14;;;;;;;20.88;9.10;;;16.10;52.00;;;;;;4993682;28;20433;-76
2023/10/11 07:30:39;;;;;;;21.67;9.30;;;16.10;51.30;;;;;;4974890;28;20433;-76
2023/10/11 07:33:05;;;;;;;27.93;9.40;;;16.20;50.90;;;;;;4992553;28;20869;-76
2023/10/11 07:35:33;;;;;;;16.50;8.95;;;16.40;50.30;;;;;;4993608;28;20392;-76
2023/10/11 07:38:00;;;;;;;29.15;9.63;;;16.50;50.00;;;;;;5007473;28;20407;-76
2023/10/11 07:40:34;;;;;;;17.05;8.90;;;16.60;48.40;;;;;;5020456;28;20413;-76
2023/10/11 07:43:00;;;;;;;20.67;9.30;;;16.70;48.10;;;;;;5016521;28;20380;-77
2023/10/11 07:45:27;;;;;;;24.15;9.50;;;16.80;48.00;;;;;;4996420;28;20938;-77
2023/10/11 07:47:53;;;;;;;24.05;8.82;;;16.90;48.10;;;;;;5013831;28;20534;-77
2023/10/11 07:50:22;;;;;;;22.00;9.83;;;17.10;46.50;;;;;;5013452;28;20423;-77
2023/10/11 07:52:48;;;;;;;18.85;9.80;;;17.20;45.40;;;;;;5012728;28;20381;-77
2023/10/11 07:55:14;;;;;;;17.10;8.40;;;17.40;44.60;;;;;;5013446;28;20388;-77
2023/10/11 07:57:44;;;;;;;20.90;8.98;;;17.50;44.00;;;;;;5012935;28;20725;-76
2023/10/11 08:00:17;;;;;;;21.15;8.35;;;17.60;44.10;;;;;;4995767;28;20899;-76
2023/10/11 08:02:56;;;;;;;23.63;9.20;;;17.70;43.00;;;;;;5011676;28;20384;-75
2023/10/11 08:05:25;;;;;;;18.42;7.70;;;17.80;42.40;;;;;;5012204;28;20388;-76
2023/10/11 08:07:52;;;;;;;22.20;8.55;;;18.00;41.80;;;;;;5016255;28;20385;-76
2023/10/11 08:10:29;;;;;;;24.88;8.98;;;18.10;40.80;;;;;;5013707;28;20428;-75
2023/10/11 08:12:57;;;;;;;22.98;8.00;;;18.30;39.90;;;;;;5016328;28;20887;-77
2023/10/11 08:15:25;;;;;;;21.40;8.43;;;18.50;38.50;;;;;;5016372;28;20592;-76
2023/10/11 08:17:51;;;;;;;20.55;8.50;;;18.60;36.90;;;;;;5014847;28;20471;-77
2023/10/11 08:20:16;;;;;;;20.60;7.15;;;18.80;35.40;;;;;;5014365;28;20388;-75
2023/10/11 08:22:46;;;;;;;16.00;7.40;;;19.00;33.90;;;;;;4993915;28;20392;-77
2023/10/11 08:25:12;;;;;;;21.80;7.60;;;19.20;33.50;;;;;;5012101;28;20854;-78
2023/10/11 08:27:39;;;;;;;19.20;7.10;;;19.30;32.90;;;;;;5008628;28;20458;-77
2023/10/11 08:30:08;;;;;;;16.45;7.18;;;19.40;32.50;;;;;;5012726;28;20804;-78
2023/10/11 08:32:38;;;;;;;17.17;7.00;;;19.40;33.00;;;;;;5013921;28;20462;-76
2023/10/11 08:35:09;;;;;;;17.15;7.03;;;19.40;32.60;;;;;;4994121;28;20404;-76
2023/10/11 08:37:35;;;;;;;20.80;7.17;;;19.50;32.40;;;;;;4994436;28;20394;-77
2023/10/11 08:40:10;;;;;;;21.63;7.73;;;19.60;32.20;;;;;;4994955;28;20943;-77
2023/10/11 08:42:37;;;;;;;15.93;7.03;;;19.90;31.30;;;;;;4994381;28;20382;-75
2023/10/11 08:45:07;;;;;;;16.05;7.00;;;20.00;30.60;;;;;;5013028;28;20407;-76
2023/10/11 08:47:33;;;;;;;16.00;6.57;;;20.30;29.50;;;;;;5002876;28;20402;-77
2023/10/11 08:49:59;;;;;;;18.48;6.75;;;20.30;29.20;;;;;;5006676;28;20407;-76
2023/10/11 08:52:28;;;;;;;22.95;6.70;;;20.40;28.50;;;;;;5008230;28;20684;-76
2023/10/11 08:54:54;;;;;;;16.97;6.80;;;20.50;28.20;;;;;;4991272;28;20711;-76
2023/10/11 08:57:23;;;;;;;15.70;6.10;;;20.60;27.60;;;;;;4992723;28;20456;-77
2023/10/11 08:59:58;;;;;;;16.52;6.10;;;20.60;26.50;;;;;;4991000;28;20445;-77
2023/10/11 09:02:28;;;;;;;18.00;5.80;;;20.80;26.60;;;;;;4991936;28;20391;-76
2023/10/11 09:05:07;;;;;;;18.13;6.32;;;20.80;26.30;;;;;;4996211;28;20394;-77
2023/10/11 09:07:37;;;;;;;16.57;6.03;;;20.90;26.20;;;;;;4996173;28;20394;-76
2023/10/11 09:10:25;;;;;;;19.08;6.57;;;21.00;25.70;;;;;;4995294;28;20511;-77
2023/10/11 09:12:56;;;;;;;19.70;6.18;;;21.10;25.20;;;;;;4995383;28;20536;-76
2023/10/11 09:15:23;;;;;;;16.57;6.10;;;21.20;24.60;;;;;;4977817;28;20409;-76
2023/10/11 09:17:50;;;;;;;20.75;6.28;;;21.30;24.30;;;;;;4995123;28;20401;-76
2023/10/11 09:20:23;;;;;;;16.95;6.03;;;21.30;24.10;;;;;;4994843;28;20472;-76
2023/10/11 09:22:52;;;;;;;14.85;5.75;;;21.40;23.50;;;;;;4995220;28;20894;-76
2023/10/11 09:25:22;;;;;;;14.52;5.55;;;21.50;23.00;;;;;;4995361;28;20395;-76
2023/10/11 09:27:50;;;;;;;11.57;6.10;;;21.70;22.50;;;;;;4996355;28;20389;-76
2023/10/11 09:30:20;;;;;;;19.37;5.90;;;21.80;22.30;;;;;;4994914;28;20437;-76
2023/10/11 09:32:51;;;;;;;13.57;5.68;;;21.80;22.30;;;;;;4994740;28;20390;-77
2023/10/11 09:35:26;;;;;;;12.07;5.82;;;21.80;21.50;;;;;;4994986;28;20394;-76
2023/10/11 09:37:53;;;;;;;11.48;5.40;;;21.90;22.30;;;;;;4994952;28;20469;-76
2023/10/11 09:40:26;;;;;;;14.60;6.05;;;21.90;21.90;;;;;;4996608;28;20386;-76
2023/10/11 09:42:54;;;;;;;14.35;6.30;;;22.00;21.80;;;;;;4980190;28;20462;-77
2023/10/11 09:45:22;;;;;;;16.13;6.00;;;22.10;21.50;;;;;;5002800;28;20390;-78
2023/10/11 09:47:54;;;;;;;13.07;6.07;;;22.20;21.90;;;;;;5002816;28;20382;-77
2023/10/11 09:50:24;;;;;;;20.87;6.10;;;22.20;21.70;;;;;;4999790;28;20401;-77
2023/10/11 09:52:53;;;;;;;14.20;6.00;;;22.30;21.40;;;;;;4996559;28;20513;-77
2023/10/11 09:55:31;;;;;;;18.45;6.30;;;22.40;21.70;;;;;;4997005;28;20395;-76
2023/10/11 09:58:12;;;;;;;17.67;7.00;;;22.50;20.60;;;;;;4994815;28;20394;-77
2023/10/11 10:00:47;;;;;;;13.45;5.90;;;22.70;20.90;;;;;;4995154;28;20390;-76
2023/10/11 10:03:13;;;;;;;17.63;5.63;;;22.60;20.20;;;;;;4978353;28;20796;-76
2023/10/11 10:06:04;;;;;;;14.43;5.60;;;22.70;20.40;;;;;;4996810;28;20477;-76
2023/10/11 10:08:30;;;;;;;15.88;5.57;;;22.80;20.00;;;;;;4998826;28;20413;-76
2023/10/11 10:10:55;;;;;;;12.30;6.10;;;22.80;19.70;;;;;;4995453;28;20893;-76
2023/10/11 10:13:24;;;;;;;15.85;5.05;;;22.90;20.10;;;;;;4995713;28;20406;-76
2023/10/11 10:15:53;;;;;;;19.20;5.60;;;22.90;20.40;;;;;;4992887;28;20393;-76
2023/10/11 10:18:20;;;;;;;13.38;6.43;;;23.20;20.00;;;;;;4995174;28;20405;-77
2023/10/11 10:20:47;;;;;;;18.20;5.80;;;23.30;19.70;;;;;;4997289;28;20429;-77
2023/10/11 10:23:15;;;;;;;25.67;6.00;;;23.50;18.60;;;;;;4994500;28;20405;-77
2023/10/11 10:25:48;;;;;;;17.42;5.15;;;23.60;18.60;;;;;;4993568;28;20481;-76
2023/10/11 10:28:32;;;;;;;13.55;5.43;;;23.60;18.70;;;;;;4994907;28;20390;-76
2023/10/11 10:31:16;;;;;;;18.02;5.90;;;23.50;18.70;;;;;;4995314;28;20409;-77
2023/10/11 10:33:43;;;;;;;14.23;5.77;;;23.40;19.20;;;;;;4995044;28;20404;-77
2023/10/11 10:36:21;;;;;;;14.15;5.47;;;23.40;18.30;;;;;;4994770;28;20769;-78
2023/10/11 10:39:01;;;;;;;19.03;5.43;;;23.50;18.90;;;;;;4996329;28;20518;-77
2023/10/11 10:41:30;;;;;;;12.77;5.63;;;23.50;18.90;;;;;;4994259;28;20438;-78
2023/10/11 10:44:12;;;;;;;19.25;6.07;;;23.50;19.50;;;;;;4998775;28;20502;-77
2023/10/11 10:46:50;;;;;;;18.98;5.93;;;23.40;19.20;;;;;;4999243;28;20761;-77
2023/10/11 10:49:19;;;;;;;20.92;5.95;;;23.50;18.80;;;;;;4998391;28;20410;-76
2023/10/11 10:51:48;;;;;;;17.55;5.47;;;23.40;18.80;;;;;;4995764;28;20476;-77
2023/10/11 10:54:17;;;;;;;18.17;5.90;;;23.40;19.20;;;;;;4996007;28;20397;-75
2023/10/11 10:56:47;;;;;;;14.87;5.40;;;23.30;19.40;;;;;;4992629;28;20434;-76
2023/10/11 10:59:14;;;;;;;14.80;5.80;;;23.20;19.30;;;;;;4994510;28;20382;-77
2023/10/11 11:01:44;;;;;;;14.60;6.50;;;23.20;19.70;;;;;;4994039;28;20455;-77
2023/10/11 11:04:11;;;;;;;20.75;6.55;;;23.20;19.80;;;;;;4977029;28;20754;-77
2023/10/11 11:06:40;;;;;;;19.75;6.40;;;23.20;19.60;;;;;;4993050;28;20395;-76
2023/10/11 11:09:14;;;;;;;24.95;6.45;;;23.20;19.60;;;;;;4993870;28;20386;-78
2023/10/11 11:11:41;;;;;;;24.05;6.43;;;23.30;19.40;;;;;;4994629;28;20518;-76
2023/10/11 11:14:14;;;;;;;20.63;6.80;;;23.20;19.40;;;;;;4993221;28;20465;-77
2023/10/11 11:16:41;;;;;;;19.63;5.75;;;23.10;20.00;;;;;;4994053;28;20390;-77
2023/10/11 11:19:25;;;;;;;21.27;6.80;;;23.00;19.80;;;;;;4998030;28;20909;-77
2023/10/11 11:22:11;;;;;;;19.33;6.10;;;23.10;20.10;;;;;;4998882;28;20425;-77
2023/10/11 11:24:38;;;;;;;20.63;5.93;;;23.20;19.50;;;;;;5001674;28;20386;-77
2023/10/11 11:27:20;;;;;;;13.18;6.20;;;23.20;19.50;;;;;;5004784;28;20393;-77
2023/10/11 11:29:51;;;;;;;20.13;6.13;;;23.10;19.70;;;;;;4998475;28;20390;-76
2023/10/11 11:32:17;;;;;;;22.98;6.95;;;23.20;19.90;;;;;;4997364;28;20460;-76
2023/10/11 11:35:02;;;;;;;21.20;6.65;;;23.20;19.70;;;;;;5000273;28;20401;-76
2023/10/11 11:37:29;;;;;;;21.70;6.80;;;23.20;19.60;;;;;;4983184;28;20758;-77
2023/10/11 11:40:17;;;;;;;21.55;7.07;;;23.20;19.80;;;;;;5000329;28;20473;-77
2023/10/11 11:42:47;;;;;;;17.80;6.70;;;23.30;19.80;;;;;;4999311;28;20410;-77
2023/10/11 11:45:14;;;;;;;31.38;7.20;;;23.40;19.90;;;;;;5000540;28;20485;-77
2023/10/11 11:47:40;;;;;;;21.83;6.35;;;23.40;19.70;;;;;;5000742;28;20417;-76
2023/10/11 11:50:18;;;;;;;22.58;6.40;;;23.50;19.50;;;;;;5001739;28;20386;-76
2023/10/11 11:52:43;;;;;;;32.63;8.65;;;23.50;19.00;;;;;;5000669;28;20672;-77
2023/10/11 11:55:10;;;;;;;24.20;8.50;;;23.50;18.70;;;;;;5000390;28;20405;-77
2023/10/11 11:57:35;;;;;;;27.63;7.18;;;23.50;18.90;;;;;;5001286;28;20529;-77
2023/10/11 12:00:20;;;;;;;30.07;7.53;;;23.40;18.90;;;;;;5001687;28;20391;-76
2023/10/11 12:02:45;;;;;;;22.92;7.20;;;23.40;18.70;;;;;;4998332;28;20374;-75
2023/10/11 12:05:11;;;;;;;21.50;6.37;;;23.40;19.10;;;;;;5000772;28;20394;-76
2023/10/11 12:07:36;;;;;;;30.15;8.10;;;23.40;19.20;;;;;;5001108;28;20386;-76
2023/10/11 12:10:11;;;;;;;20.00;7.43;;;23.50;18.90;;;;;;4982315;28;20394;-76
2023/10/11 12:12:36;;;;;;;29.73;7.88;;;23.60;19.30;;;;;;4998888;28;20495;-76
2023/10/11 12:15:03;;;;;;;20.90;6.30;;;23.70;19.00;;;;;;4998992;28;20980;-76
2023/10/11 12:17:29;;;;;;;18.83;6.70;;;23.80;19.00;;;;;;4998849;28;20687;-76
2023/10/11 12:19:55;;;;;;;24.00;6.75;;;23.80;18.90;;;;;;4997138;28;20884;-76
2023/10/11 12:22:22;;;;;;;22.60;6.93;;;23.60;18.90;;;;;;5001188;28;20450;-77
2023/10/11 12:24:48;;;;;;;22.30;6.32;;;23.50;19.50;;;;;;5001471;28;20409;-77
2023/10/11 12:27:13;;;;;;;24.17;6.25;;;23.60;19.30;;;;;;5001091;28;20398;-76
2023/10/11 12:29:39;;;;;;;20.35;6.50;;;23.70;19.50;;;;;;5002075;28;20391;-77
2023/10/11 12:32:07;;;;;;;23.02;6.10;;;23.70;19.30;;;;;;4997898;28;20435;-77
2023/10/11 12:34:32;;;;;;;25.10;6.95;;;23.70;19.60;;;;;;4993566;28;20537;-76
2023/10/11 12:37:00;;;;;;;14.32;5.85;;;23.90;19.70;;;;;;4993018;28;20423;-76
2023/10/11 12:39:30;;;;;;;18.80;5.72;;;24.00;19.20;;;;;;5001853;28;20394;-77
2023/10/11 12:41:56;;;;;;;22.27;6.60;;;24.10;19.10;;;;;;5002634;28;20927;-77
2023/10/11 12:44:24;;;;;;;16.83;5.90;;;24.10;19.50;;;;;;5001107;28;20429;-76
2023/10/11 12:46:51;;;;;;;22.63;6.30;;;24.20;19.00;;;;;;4998829;28;20386;-76
2023/10/11 12:49:17;;;;;;;23.90;7.20;;;24.30;19.20;;;;;;5000370;28;20386;-77
2023/10/11 12:51:44;;;;;;;17.90;6.43;;;24.40;18.60;;;;;;5001341;28;20418;-77
2023/10/11 12:54:11;;;;;;;17.27;5.70;;;24.50;18.50;;;;;;5001532;28;20382;-77
2023/10/11 12:56:38;;;;;;;20.27;6.53;;;24.40;18.20;;;;;;4998854;28;20382;-77
2023/10/11 12:59:10;;;;;;;21.40;6.40;;;24.40;18.60;;;;;;4998648;28;20382;-77
2023/10/11 13:01:36;;;;;;;19.52;6.10;;;24.30;18.90;;;;;;4981152;28;20643;-77
2023/10/11 13:04:06;;;;;;;18.48;5.47;;;24.40;19.40;;;;;;4998473;28;20488;-76
2023/10/11 13:06:43;;;;;;;23.40;6.45;;;24.40;18.90;;;;;;4999403;28;20413;-78
2023/10/11 13:09:15;;;;;;;26.52;6.35;;;24.40;19.30;;;;;;4998254;28;20390;-76
2023/10/11 13:11:46;;;;;;;22.27;6.10;;;24.40;19.20;;;;;;4996737;28;20504;-75
2023/10/11 13:14:19;;;;;;;17.38;5.95;;;24.60;19.20;;;;;;4996959;28;20706;-76
2023/10/11 13:16:48;;;;;;;15.55;5.70;;;24.60;19.00;;;;;;4998413;28;20382;-76
2023/10/11 13:19:19;;;;;;;19.03;6.30;;;24.70;18.70;;;;;;4998168;28;20383;-76
2023/10/11 13:21:46;;;;;;;19.48;5.60;;;24.60;19.00;;;;;;4997395;28;20388;-76
2023/10/11 13:24:12;;;;;;;18.80;6.20;;;24.70;18.90;;;;;;4998230;28;20402;-76
2023/10/11 13:26:42;;;;;;;18.07;5.90;;;24.60;18.80;;;;;;4997441;28;20409;-76
2023/10/11 13:29:09;;;;;;;16.73;5.60;;;24.60;19.40;;;;;;4998425;28;20422;-77
2023/10/11 13:31:34;;;;;;;22.23;6.00;;;24.60;19.20;;;;;;4997107;28;20414;-77
2023/10/11 13:34:05;;;;;;;18.70;6.20;;;24.70;19.20;;;;;;4997368;28;20394;-77
2023/10/11 13:36:33;;;;;;;19.70;5.70;;;25.00;19.10;;;;;;4979974;28;20466;-75
2023/10/11 13:39:00;;;;;;;14.50;5.55;;;25.20;18.40;;;;;;4980324;28;20401;-76
2023/10/11 13:41:28;;;;;;;17.77;5.40;;;25.60;17.90;;;;;;4997518;28;20413;-76
2023/10/11 13:43:55;;;;;;;14.82;5.25;;;25.90;16.70;;;;;;4979865;28;20525;-76